Machias, Washington
Current Conditions -  °F | °C
As of 1:53 PM on Friday 28 Nov 2014 (Local Time) from KPAE Reporting Station
Light Rain Light Rain  
Wind Chill: 30°   Ceiling: 700
Heat Index: 36°   Visibility: 3mi
Dew Point: 34°   Wind: 8mph
Humidity: 93%   Direction: 20°NNE
Pressure: 29.48"   Gusts: NA
Location:  47.9468°N, 122.012°W
Report Text: KPAE 282153Z 02007KT 3SM -RA BR BKN007 OVC012 02/01 A2948 RMK AO2 RAE34B49SNB34E49 SLP986 P0013 T00220011
Loading
Personal Weather Stations






























Interactive Weather Map New forecast layout! Learn more

10-Day Weather Forecast

Advertisements
Track Severe Weather on mobile